Aviation Digital Data Service (ADDS)

Output produced by TAFs form (0753 UTC 25 March 2017)
found at http://www.aviationweather.gov/adds/tafs/
 
METAR text: RJOW 250700Z 01007KT 330V070 9999 FEW040 BKN100 BKN/// 11/02 Q1016
Conditions at: RJOW (IWAMI , JP) observed 0700 UTC 25 March 2017
Temperature: 11.0°C (52°F)
Dewpoint: 2.0°C (36°F) [RH = 54%]
Pressure (altimeter): 30.00 inches Hg (1016.0 mb)
Winds: from the N (10 degrees) at 8 MPH (7 knots; 3.6 m/s)
Visibility: 6 or more miles (10+ km)
Ceiling: 10000 feet AGL
Clouds: few clouds at 4000 feet AGL
broken clouds at 10000 feet AGL
Weather: no significant weather observed at this time